sensor_id;sensor_type;location;lat;lon;timestamp;temperature;humidity
14775;DHT22;7479;47.042;15.160;2022-12-18T09:25:29;-3.40;99.90
14775;DHT22;7479;47.042;15.160;2022-12-18T09:37:41;-3.20;99.90
14775;DHT22;7479;47.042;15.160;2022-12-18T09:48:20;-2.50;99.90
14775;DHT22;7479;47.042;15.160;2022-12-18T09:58:43;-2.00;99.90
14775;DHT22;7479;47.042;15.160;2022-12-18T10:03:38;-1.80;99.90
14775;DHT22;7479;47.042;15.160;2022-12-18T10:08:37;-1.60;99.90
14775;DHT22;7479;47.042;15.160;2022-12-18T10:13:40;-1.30;99.90
14775;DHT22;7479;47.042;15.160;2022-12-18T10:18:46;-1.10;99.90
14775;DHT22;7479;47.042;15.160;2022-12-18T10:23:51;-0.80;99.90
14775;DHT22;7479;47.042;15.160;2022-12-18T10:28:48;-0.50;99.90
14775;DHT22;7479;47.042;15.160;2022-12-18T10:33:43;-0.30;99.90
14775;DHT22;7479;47.042;15.160;2022-12-18T10:38:37;-0.10;99.90
14775;DHT22;7479;47.042;15.160;2022-12-18T10:43:32;0.20;99.90
14775;DHT22;7479;47.042;15.160;2022-12-18T10:48:28;0.50;99.90
14775;DHT22;7479;47.042;15.160;2022-12-18T10:53:25;0.70;99.90
14775;DHT22;7479;47.042;15.160;2022-12-18T10:58:24;1.00;99.90
14775;DHT22;7479;47.042;15.160;2022-12-18T11:03:38;1.10;99.90
14775;DHT22;7479;47.042;15.160;2022-12-18T11:08:33;1.30;99.90
14775;DHT22;7479;47.042;15.160;2022-12-18T11:13:29;1.40;99.90
14775;DHT22;7479;47.042;15.160;2022-12-18T11:18:26;1.70;99.90
14775;DHT22;7479;47.042;15.160;2022-12-18T11:23:26;1.80;99.90
14775;DHT22;7479;47.042;15.160;2022-12-18T11:28:29;1.80;99.90
14775;DHT22;7479;47.042;15.160;2022-12-18T11:33:27;1.90;99.90
14775;DHT22;7479;47.042;15.160;2022-12-18T11:38:24;2.30;99.90
14775;DHT22;7479;47.042;15.160;2022-12-18T11:43:25;2.60;99.90
14775;DHT22;7479;47.042;15.160;2022-12-18T11:48:23;3.00;99.90
14775;DHT22;7479;47.042;15.160;2022-12-18T11:53:19;3.10;99.90
14775;DHT22;7479;47.042;15.160;2022-12-18T11:58:24;3.40;99.90
14775;DHT22;7479;47.042;15.160;2022-12-18T12:03:35;3.40;99.90
14775;DHT22;7479;47.042;15.160;2022-12-18T12:08:40;2.60;99.90
14775;DHT22;7479;47.042;15.160;2022-12-18T12:13:47;2.00;99.90
14775;DHT22;7479;47.042;15.160;2022-12-18T12:18:58;1.30;99.90
14775;DHT22;7479;47.042;15.160;2022-12-18T12:24:00;0.90;99.90
14775;DHT22;7479;47.042;15.160;2022-12-18T12:29:10;0.90;99.90
14775;DHT22;7479;47.042;15.160;2022-12-18T12:34:18;0.70;99.90
14775;DHT22;7479;47.042;15.160;2022-12-18T12:39:16;0.50;99.90
14775;DHT22;7479;47.042;15.160;2022-12-18T12:44:17;0.40;99.90
14775;DHT22;7479;47.042;15.160;2022-12-18T12:49:15;0.20;99.90
14775;DHT22;7479;47.042;15.160;2022-12-18T12:54:14;0.10;99.90
14775;DHT22;7479;47.042;15.160;2022-12-18T12:59:15;-0.10;99.90
14775;DHT22;7479;47.042;15.160;2022-12-18T13:04:21;-0.10;99.90
14775;DHT22;7479;47.042;15.160;2022-12-18T13:09:15;-0.20;99.90
14775;DHT22;7479;47.042;15.160;2022-12-18T13:14:26;-0.20;99.90
14775;DHT22;7479;47.042;15.160;2022-12-18T13:19:22;-0.20;99.90
14775;DHT22;7479;47.042;15.160;2022-12-18T13:24:24;-0.20;99.90
14775;DHT22;7479;47.042;15.160;2022-12-18T13:29:44;-0.30;99.90
14775;DHT22;7479;47.042;15.160;2022-12-18T13:34:39;-0.40;99.90
14775;DHT22;7479;47.042;15.160;2022-12-18T13:39:34;-0.60;99.90
14775;DHT22;7479;47.042;15.160;2022-12-18T13:44:31;-0.70;99.90
14775;DHT22;7479;47.042;15.160;2022-12-18T13:49:38;-0.70;99.90
14775;DHT22;7479;47.042;15.160;2022-12-18T13:54:35;-0.70;99.90
14775;DHT22;7479;47.042;15.160;2022-12-18T13:59:34;-0.80;99.90
14775;DHT22;7479;47.042;15.160;2022-12-18T14:04:30;-0.80;99.90
14775;DHT22;7479;47.042;15.160;2022-12-18T14:09:29;-0.80;99.90
14775;DHT22;7479;47.042;15.160;2022-12-18T14:14:23;-1.00;99.90
14775;DHT22;7479;47.042;15.160;2022-12-18T14:19:24;-1.00;99.90
14775;DHT22;7479;47.042;15.160;2022-12-18T14:24:19;-1.00;99.90
14775;DHT22;7479;47.042;15.160;2022-12-18T14:29:30;-1.00;99.90
14775;DHT22;7479;47.042;15.160;2022-12-18T14:34:26;-1.00;99.90
14775;DHT22;7479;47.042;15.160;2022-12-18T14:39:20;-1.10;99.90
14775;DHT22;7479;47.042;15.160;2022-12-18T14:44:14;-1.10;99.90
14775;DHT22;7479;47.042;15.160;2022-12-18T14:49:19;-1.20;99.90
14775;DHT22;7479;47.042;15.160;2022-12-18T14:54:17;-1.20;99.90
14775;DHT22;7479;47.042;15.160;2022-12-18T14:59:14;-1.30;99.90
14775;DHT22;7479;47.042;15.160;2022-12-18T15:04:32;-1.30;99.90
14775;DHT22;7479;47.042;15.160;2022-12-18T15:09:30;-1.50;99.90
14775;DHT22;7479;47.042;15.160;2022-12-18T15:14:32;-1.60;99.90
14775;DHT22;7479;47.042;15.160;2022-12-18T15:19:35;-1.60;99.90
14775;DHT22;7479;47.042;15.160;2022-12-18T15:24:31;-1.70;99.90
14775;DHT22;7479;47.042;15.160;2022-12-18T15:29:25;-1.80;99.90
14775;DHT22;7479;47.042;15.160;2022-12-18T15:34:21;-1.70;99.90
14775;DHT22;7479;47.042;15.160;2022-12-18T15:39:17;-1.80;99.90
